createdAt,value
2022-08-25T00:01:58.458Z,7.00
2022-08-25T00:04:29.777Z,6.97
2022-08-25T00:07:02.213Z,7.77
2022-08-25T00:09:32.015Z,8.93
2022-08-25T00:11:59.294Z,8.23
2022-08-25T00:14:30.389Z,12.87
2022-08-25T00:16:57.620Z,11.57
2022-08-25T00:19:28.693Z,10.13
2022-08-25T00:21:56.188Z,7.27
2022-08-25T00:24:24.628Z,10.30
2022-08-25T00:26:55.122Z,10.47
2022-08-25T00:29:23.516Z,9.23
2022-08-25T00:31:51.142Z,4.10
2022-08-25T00:34:22.757Z,8.53
2022-08-25T00:36:51.792Z,8.50
2022-08-25T00:39:21.250Z,8.03
2022-08-25T00:41:50.439Z,9.60
2022-08-25T00:44:18.974Z,8.20
2022-08-25T00:46:55.010Z,10.03
2022-08-25T00:49:49.857Z,9.67
2022-08-25T00:52:19.314Z,9.87
2022-08-25T00:55:09.327Z,7.33
2022-08-25T00:57:43.447Z,7.93
2022-08-25T01:00:24.380Z,8.43
2022-08-25T01:02:51.878Z,8.13
2022-08-25T01:05:19.710Z,11.87
2022-08-25T01:07:46.883Z,6.20
2022-08-25T01:10:14.116Z,9.87
2022-08-25T01:12:41.515Z,7.43
2022-08-25T01:15:10.476Z,7.83
2022-08-25T01:17:51.481Z,12.40
2022-08-25T01:20:20.655Z,7.17
2022-08-25T01:22:50.923Z,5.77
2022-08-25T01:25:34.329Z,11.53
2022-08-25T01:28:01.236Z,8.90
2022-08-25T01:30:28.168Z,7.83
2022-08-25T01:32:55.026Z,9.30
2022-08-25T01:35:21.793Z,8.80
2022-08-25T01:37:48.597Z,8.03
2022-08-25T01:40:15.440Z,7.77
2022-08-25T01:43:02.346Z,8.27
2022-08-25T01:45:29.801Z,24.43
2022-08-25T01:47:56.954Z,35.67
2022-08-25T01:50:23.885Z,8.93
2022-08-25T01:53:09.161Z,7.63
2022-08-25T01:55:51.838Z,8.27
2022-08-25T01:58:31.768Z,7.13
2022-08-25T02:01:01.848Z,8.73
2022-08-25T02:03:29.670Z,6.37
2022-08-25T02:06:01.458Z,8.53
2022-08-25T02:08:31.204Z,4.35
2022-08-25T02:11:00.169Z,8.23
2022-08-25T02:13:31.583Z,8.83
2022-08-25T02:16:02.589Z,7.63
2022-08-25T02:18:29.706Z,8.37
2022-08-25T02:20:56.591Z,9.77
2022-08-25T02:23:23.448Z,7.67
2022-08-25T02:25:52.290Z,9.80
2022-08-25T02:28:19.182Z,9.10
2022-08-25T02:30:46.131Z,13.70
2022-08-25T02:33:13.701Z,11.80
2022-08-25T02:35:40.489Z,8.77
2022-08-25T02:38:08.351Z,6.67
2022-08-25T02:40:35.305Z,9.30
2022-08-25T02:43:02.350Z,8.20
2022-08-25T02:45:29.844Z,13.83
2022-08-25T02:47:57.039Z,6.90
2022-08-25T02:50:23.764Z,11.83
2022-08-25T02:52:52.333Z,10.70
2022-08-25T02:55:20.172Z,9.43
2022-08-25T02:57:48.327Z,11.43
2022-08-25T03:00:16.477Z,11.83
2022-08-25T03:02:46.892Z,12.93
2022-08-25T03:05:15.833Z,11.30
2022-08-25T03:07:42.974Z,12.17
2022-08-25T03:10:14.846Z,9.07
2022-08-25T03:12:42.124Z,9.97
2022-08-25T03:15:12.806Z,12.23
2022-08-25T03:17:40.857Z,12.13
2022-08-25T03:20:10.931Z,13.57
2022-08-25T03:22:38.235Z,10.27
2022-08-25T03:25:24.450Z,8.40
2022-08-25T03:27:52.126Z,9.33
2022-08-25T03:30:20.052Z,9.13
2022-08-25T03:32:47.325Z,10.37
2022-08-25T03:35:14.668Z,10.27
2022-08-25T03:37:41.757Z,9.20
2022-08-25T03:40:15.412Z,8.93
2022-08-25T03:42:45.423Z,9.73
2022-08-25T03:45:13.718Z,9.73
2022-08-25T03:47:40.769Z,8.90
2022-08-25T03:50:10.135Z,10.10
2022-08-25T03:52:41.790Z,9.93
2022-08-25T03:55:12.215Z,12.10
2022-08-25T03:57:39.580Z,11.67
2022-08-25T04:00:09.109Z,9.37
2022-08-25T04:02:35.946Z,8.40
2022-08-25T04:05:02.900Z,11.13
2022-08-25T04:07:30.895Z,9.20
2022-08-25T04:09:57.612Z,8.43
2022-08-25T04:12:24.807Z,8.80
2022-08-25T04:14:52.751Z,9.53
2022-08-25T04:17:19.576Z,8.13
2022-08-25T04:19:46.473Z,10.67
2022-08-25T04:22:13.379Z,7.87
2022-08-25T04:24:41.526Z,10.50
2022-08-25T04:27:08.460Z,9.90
2022-08-25T04:29:36.423Z,13.43
2022-08-25T04:32:03.595Z,10.50
2022-08-25T04:34:31.510Z,7.93
2022-08-25T04:37:04.086Z,9.50
2022-08-25T04:39:31.102Z,7.10
2022-08-25T04:41:57.968Z,9.43
2022-08-25T04:44:26.552Z,6.77
2022-08-25T04:46:53.586Z,10.13
2022-08-25T04:49:20.295Z,11.53
2022-08-25T04:51:47.245Z,10.23
2022-08-25T04:54:21.865Z,8.60
2022-08-25T04:56:50.644Z,9.00
2022-08-25T04:59:22.666Z,13.77
2022-08-25T05:01:52.384Z,13.33
2022-08-25T05:04:28.320Z,9.43
2022-08-25T05:06:56.804Z,7.63
2022-08-25T05:09:26.047Z,8.27
2022-08-25T05:11:53.691Z,8.93
2022-08-25T05:14:25.633Z,12.17
2022-08-25T05:16:55.349Z,11.40
2022-08-25T05:19:24.063Z,8.50
2022-08-25T05:21:51.495Z,8.57
2022-08-25T05:24:18.914Z,7.70
2022-08-25T05:26:46.044Z,11.80
2022-08-25T05:29:14.827Z,7.73
2022-08-25T05:31:46.993Z,10.10
2022-08-25T05:34:15.209Z,9.27
2022-08-25T05:36:43.696Z,10.40
2022-08-25T05:39:11.155Z,7.03
2022-08-25T05:41:38.707Z,12.97
2022-08-25T05:44:05.771Z,13.33
2022-08-25T05:46:33.312Z,9.03
2022-08-25T05:49:00.413Z,7.00
2022-08-25T05:51:27.364Z,8.93
2022-08-25T05:53:54.278Z,10.80
2022-08-25T05:56:21.404Z,9.70
2022-08-25T05:58:49.561Z,9.47
2022-08-25T06:01:41.083Z,11.87
2022-08-25T06:04:10.630Z,6.07
2022-08-25T06:06:37.638Z,5.60
2022-08-25T06:09:06.694Z,10.53
2022-08-25T06:11:33.699Z,7.97
2022-08-25T06:14:00.548Z,10.10
2022-08-25T06:16:27.343Z,9.07
2022-08-25T06:18:55.581Z,10.50
2022-08-25T06:21:22.446Z,8.33
2022-08-25T06:23:49.540Z,7.03
2022-08-25T06:26:20.714Z,7.87
2022-08-25T06:28:49.784Z,8.45
2022-08-25T06:31:17.781Z,8.20
2022-08-25T06:33:44.857Z,8.10
2022-08-25T06:36:11.664Z,10.30
2022-08-25T06:38:38.673Z,10.60
2022-08-25T06:41:08.404Z,7.20
2022-08-25T06:43:35.453Z,11.07
2022-08-25T06:46:14.084Z,9.20
2022-08-25T06:48:41.209Z,12.07
2022-08-25T06:51:10.629Z,4.60
2022-08-25T06:53:41.647Z,8.80
2022-08-25T06:56:09.215Z,5.83
2022-08-25T06:58:38.320Z,6.43
2022-08-25T07:01:22.600Z,8.90
2022-08-25T07:03:57.542Z,8.37
2022-08-25T07:06:26.013Z,6.50
2022-08-25T07:08:53.220Z,4.63
2022-08-25T07:11:22.997Z,6.10
2022-08-25T07:13:51.389Z,7.23
2022-08-25T07:16:20.623Z,6.47
2022-08-25T07:18:48.350Z,6.90
2022-08-25T07:21:16.133Z,3.47
2022-08-25T07:23:43.339Z,9.80
2022-08-25T07:26:36.337Z,8.43
2022-08-25T07:31:35.523Z,6.17
2022-08-25T07:34:21.202Z,5.73
2022-08-25T07:36:48.237Z,8.73
2022-08-25T07:39:15.026Z,11.73
2022-08-25T07:41:42.495Z,6.53
2022-08-25T07:44:12.198Z,5.80
2022-08-25T07:46:40.135Z,7.70
2022-08-25T07:49:16.415Z,6.27
2022-08-25T07:52:04.112Z,8.67
2022-08-25T07:54:33.953Z,8.23
2022-08-25T07:57:05.970Z,7.80
2022-08-25T07:59:39.741Z,8.33
2022-08-25T08:02:18.617Z,7.57
2022-08-25T08:04:48.947Z,6.47
2022-08-25T08:07:19.196Z,5.90
2022-08-25T08:09:46.846Z,8.33
2022-08-25T08:12:13.843Z,4.37
2022-08-25T08:14:44.981Z,6.73
2022-08-25T08:17:13.779Z,11.33
2022-08-25T08:19:44.812Z,7.40
2022-08-25T08:22:15.348Z,6.00
2022-08-25T08:24:54.811Z,5.27
2022-08-25T08:27:23.639Z,4.80
2022-08-25T08:29:50.492Z,8.47
2022-08-25T08:32:18.555Z,6.97
2022-08-25T08:34:51.265Z,6.53
2022-08-25T08:37:22.830Z,8.27
2022-08-25T08:39:52.842Z,9.93
2022-08-25T08:42:32.353Z,6.90
2022-08-25T08:45:09.473Z,6.03
2022-08-25T08:48:23.620Z,6.70
2022-08-25T08:51:23.147Z,9.30
2022-08-25T08:54:15.878Z,8.13
2022-08-25T08:56:48.546Z,5.43
2022-08-25T08:59:30.754Z,7.70
2022-08-25T09:02:04.345Z,6.85
2022-08-25T09:04:40.545Z,5.70
2022-08-25T09:07:13.166Z,7.67
2022-08-25T09:09:42.511Z,8.27
2022-08-25T09:12:12.159Z,8.53
2022-08-25T09:15:03.127Z,6.87
2022-08-25T09:18:17.132Z,8.47
2022-08-25T09:21:21.550Z,7.73
2022-08-25T09:24:14.130Z,13.57
2022-08-25T09:27:06.957Z,5.50
2022-08-25T09:29:49.256Z,5.70
2022-08-25T09:32:24.130Z,5.43
2022-08-25T09:35:01.383Z,6.43
2022-08-25T09:37:28.998Z,6.33
2022-08-25T09:39:55.908Z,9.20
2022-08-25T09:42:51.547Z,8.63
2022-08-25T09:45:35.061Z,11.13
2022-08-25T09:48:03.096Z,4.30
2022-08-25T09:50:34.860Z,9.30
2022-08-25T09:53:17.463Z,5.30
2022-08-25T09:55:59.864Z,6.93
2022-08-25T09:58:27.893Z,6.73
2022-08-25T10:01:19.793Z,4.33
2022-08-25T10:03:57.635Z,6.43
2022-08-25T10:06:26.045Z,6.77
2022-08-25T10:08:58.172Z,8.17
2022-08-25T10:11:42.590Z,8.10
2022-08-25T10:14:36.589Z,4.53
2022-08-25T10:17:29.504Z,7.27
2022-08-25T10:20:12.283Z,5.28
2022-08-25T10:22:42.614Z,5.70
2022-08-25T10:25:12.458Z,5.27
2022-08-25T10:28:26.506Z,5.03
2022-08-25T10:31:06.512Z,6.17
2022-08-25T10:34:01.599Z,6.27
2022-08-25T10:36:38.405Z,3.07
2022-08-25T10:39:34.668Z,4.87
2022-08-25T10:42:30.299Z,6.03
2022-08-25T10:45:32.000Z,5.47
2022-08-25T10:48:13.294Z,5.73
2022-08-25T10:50:54.945Z,4.03
2022-08-25T10:53:34.732Z,6.90
2022-08-25T10:56:08.254Z,7.97
2022-08-25T10:59:22.610Z,5.10
2022-08-25T11:02:08.070Z,5.23
2022-08-25T11:04:51.839Z,4.83
2022-08-25T11:08:12.073Z,5.90
2022-08-25T11:11:13.768Z,5.53
2022-08-25T11:13:53.291Z,5.18
2022-08-25T11:16:35.247Z,7.23
2022-08-25T11:19:29.060Z,4.80
2022-08-25T11:22:19.335Z,5.83
2022-08-25T11:25:10.198Z,3.67
2022-08-25T11:27:41.996Z,3.70
2022-08-25T11:30:14.683Z,5.68
2022-08-25T11:32:47.099Z,3.90
2022-08-25T11:37:59.668Z,5.30
2022-08-25T11:41:02.016Z,3.05
2022-08-25T11:44:00.119Z,4.55
2022-08-25T11:46:39.670Z,2.42
2022-08-25T11:49:44.234Z,3.10
2022-08-25T11:52:34.656Z,4.50
2022-08-25T11:55:26.499Z,3.30
2022-08-25T11:58:28.273Z,5.10
2022-08-25T12:00:59.882Z,4.33
2022-08-25T12:03:32.638Z,4.10
2022-08-25T12:06:14.839Z,5.47
2022-08-25T12:09:04.317Z,4.07
2022-08-25T12:11:58.546Z,2.75
2022-08-25T12:14:28.260Z,5.18
2022-08-25T12:16:55.312Z,4.55
2022-08-25T12:19:26.979Z,5.30
2022-08-25T12:22:03.398Z,3.50
2022-08-25T12:24:47.597Z,4.30
2022-08-25T12:27:33.576Z,5.43
2022-08-25T12:30:18.595Z,3.83
2022-08-25T12:33:08.047Z,4.22
2022-08-25T12:36:07.471Z,5.85
2022-08-25T12:38:52.152Z,4.50
2022-08-25T12:41:26.643Z,7.18
2022-08-25T12:44:09.948Z,5.07
2022-08-25T12:46:39.577Z,2.97
2022-08-25T12:49:15.514Z,4.68
2022-08-25T12:51:57.454Z,4.05
2022-08-25T12:54:52.295Z,5.07
2022-08-25T12:57:42.031Z,4.28
2022-08-25T13:00:16.283Z,5.30
2022-08-25T13:02:56.313Z,3.37
2022-08-25T13:05:26.001Z,3.58
2022-08-25T13:08:33.748Z,3.90
2022-08-25T13:11:25.221Z,4.33
2022-08-25T13:14:02.070Z,5.40
2022-08-25T13:16:30.455Z,3.43
2022-08-25T13:19:01.703Z,2.42
2022-08-25T13:21:38.454Z,2.92
2022-08-25T13:24:28.104Z,2.78
2022-08-25T13:26:57.987Z,2.33
2022-08-25T13:29:35.842Z,4.90
2022-08-25T13:32:09.297Z,3.78
2022-08-25T13:37:31.343Z,4.00
2022-08-25T13:40:33.452Z,2.35
2022-08-25T13:45:41.866Z,5.75
2022-08-25T13:48:23.090Z,2.72
2022-08-25T13:50:53.118Z,2.05
2022-08-25T13:53:25.575Z,2.80
2022-08-25T13:55:57.174Z,2.67
2022-08-25T13:58:38.859Z,4.30
2022-08-25T14:01:48.051Z,1.90
2022-08-25T14:04:26.266Z,1.65
2022-08-25T14:07:22.722Z,4.55
2022-08-25T14:10:00.949Z,3.83
2022-08-25T14:12:38.118Z,2.20
2022-08-25T14:15:33.899Z,2.65
2022-08-25T14:18:21.695Z,3.60
2022-08-25T14:20:56.494Z,5.45
2022-08-25T14:23:30.818Z,3.47
2022-08-25T14:25:58.786Z,5.55
2022-08-25T14:28:32.029Z,4.15
2022-08-25T14:31:28.132Z,4.00
2022-08-25T14:33:59.933Z,2.13
2022-08-25T14:36:30.330Z,2.55
2022-08-25T14:38:57.904Z,4.10
2022-08-25T14:41:26.685Z,4.05
2022-08-25T14:43:54.217Z,3.17
2022-08-25T14:46:27.068Z,3.15
2022-08-25T14:49:01.031Z,3.65
2022-08-25T14:51:32.654Z,3.55
2022-08-25T14:54:06.192Z,5.57
2022-08-25T14:56:34.188Z,3.38
2022-08-25T14:59:01.516Z,3.75
2022-08-25T15:01:32.044Z,2.83
2022-08-25T15:04:05.659Z,2.95
2022-08-25T15:06:35.612Z,3.22
2022-08-25T15:09:12.882Z,3.72
2022-08-25T15:11:45.914Z,3.38
2022-08-25T15:14:15.892Z,4.05
2022-08-25T15:16:51.394Z,2.38
2022-08-25T15:19:20.608Z,3.47
2022-08-25T15:21:48.546Z,4.18
2022-08-25T15:24:17.680Z,3.50
2022-08-25T15:26:56.428Z,4.30
2022-08-25T15:29:27.469Z,1.90
2022-08-25T15:31:54.313Z,5.45
2022-08-25T15:34:21.565Z,3.75
2022-08-25T15:36:48.726Z,5.47
2022-08-25T15:39:18.870Z,5.30
2022-08-25T15:41:49.710Z,4.28
2022-08-25T15:44:16.716Z,3.20
2022-08-25T15:46:47.168Z,2.63
2022-08-25T15:49:20.744Z,7.93
2022-08-25T15:51:54.813Z,3.80
2022-08-25T15:54:23.513Z,4.70
2022-08-25T15:56:50.585Z,3.15
2022-08-25T15:59:19.136Z,7.40
2022-08-25T16:01:53.748Z,9.18
2022-08-25T16:04:26.415Z,6.72
2022-08-25T16:06:54.031Z,4.10
2022-08-25T16:09:23.553Z,4.20
2022-08-25T16:11:55.636Z,4.28
2022-08-25T16:14:24.088Z,4.07
2022-08-25T16:16:51.712Z,4.63
2022-08-25T16:19:18.793Z,4.47
2022-08-25T16:21:47.566Z,5.05
2022-08-25T16:24:14.713Z,5.38
2022-08-25T16:26:48.006Z,4.13
2022-08-25T16:29:16.488Z,5.70
2022-08-25T16:31:43.926Z,5.78
2022-08-25T16:34:10.731Z,4.22
2022-08-25T16:36:39.993Z,6.65
2022-08-25T16:39:10.013Z,5.40
2022-08-25T16:41:37.432Z,7.97
2022-08-25T16:44:11.198Z,4.63
2022-08-25T16:46:40.793Z,4.75
2022-08-25T16:49:09.347Z,4.45
2022-08-25T16:51:39.037Z,3.38
2022-08-25T16:54:26.253Z,3.88
2022-08-25T16:56:54.953Z,5.88
2022-08-25T16:59:23.448Z,8.52
2022-08-25T17:01:52.282Z,3.75
2022-08-25T17:04:19.537Z,4.80
2022-08-25T17:06:51.547Z,3.70
2022-08-25T17:09:23.006Z,4.17
2022-08-25T17:11:54.338Z,5.90
2022-08-25T17:14:21.979Z,6.20
2022-08-25T17:16:51.212Z,7.77
2022-08-25T17:19:18.590Z,5.10
2022-08-25T17:21:46.462Z,7.00
2022-08-25T17:24:14.500Z,5.60
2022-08-25T17:26:42.484Z,5.70
2022-08-25T17:29:10.462Z,5.83
2022-08-25T17:31:40.013Z,4.83
2022-08-25T17:34:09.579Z,3.30
2022-08-25T17:36:37.235Z,4.03
2022-08-25T17:39:05.407Z,3.67
2022-08-25T17:41:33.458Z,4.43
2022-08-25T17:44:04.942Z,5.57
2022-08-25T17:46:32.258Z,5.03
2022-08-25T17:48:59.227Z,6.27
2022-08-25T17:51:26.292Z,3.70
2022-08-25T17:53:57.169Z,4.17
2022-08-25T17:56:27.808Z,4.67
2022-08-25T17:58:56.299Z,5.30
2022-08-25T18:01:29.352Z,4.47
2022-08-25T18:03:58.972Z,4.53
2022-08-25T18:06:27.389Z,4.03
2022-08-25T18:08:59.939Z,4.13
2022-08-25T18:11:28.870Z,5.97
2022-08-25T18:13:57.572Z,4.37
2022-08-25T18:16:25.119Z,4.77
2022-08-25T18:18:52.808Z,5.20
2022-08-25T18:21:21.378Z,6.50
2022-08-25T18:23:50.471Z,6.27
2022-08-25T18:26:24.747Z,7.20
2022-08-25T18:28:56.266Z,4.37
2022-08-25T18:31:23.604Z,4.67
2022-08-25T18:33:51.150Z,4.83
2022-08-25T18:36:21.011Z,4.60
2022-08-25T18:39:07.525Z,5.03
2022-08-25T18:41:39.084Z,6.77
2022-08-25T18:44:07.472Z,5.73
2022-08-25T18:46:35.059Z,5.53
2022-08-25T18:49:02.964Z,5.80
2022-08-25T18:51:33.041Z,4.60
2022-08-25T18:54:01.485Z,4.67
2022-08-25T18:56:28.952Z,6.03
2022-08-25T18:58:56.054Z,4.80
2022-08-25T19:01:23.397Z,4.43
2022-08-25T19:03:50.639Z,4.83
2022-08-25T19:06:17.691Z,5.03
2022-08-25T19:08:46.015Z,5.33
2022-08-25T19:11:13.111Z,7.17
2022-08-25T19:13:40.546Z,4.27
2022-08-25T19:16:32.208Z,5.60
2022-08-25T19:19:03.630Z,5.10
2022-08-25T19:21:31.285Z,4.07
2022-08-25T19:23:59.932Z,6.90
2022-08-25T19:26:27.288Z,7.67
2022-08-25T19:28:54.170Z,6.80
2022-08-25T19:31:23.444Z,5.93
2022-08-25T19:33:52.673Z,6.67
2022-08-25T19:36:27.866Z,7.60
2022-08-25T19:38:58.332Z,7.80
2022-08-25T19:41:26.591Z,4.67
2022-08-25T19:43:57.048Z,7.83
2022-08-25T19:46:32.897Z,3.90
2022-08-25T19:49:09.168Z,6.97
2022-08-25T19:51:45.659Z,3.70
2022-08-25T19:54:16.474Z,4.90
2022-08-25T19:56:54.244Z,5.13
2022-08-25T19:59:25.843Z,4.97
2022-08-25T20:01:53.151Z,6.10
2022-08-25T20:04:20.261Z,7.27
2022-08-25T20:06:48.288Z,4.73
2022-08-25T20:09:21.146Z,5.00
2022-08-25T20:12:02.739Z,5.13
2022-08-25T20:14:29.862Z,4.10
2022-08-25T20:16:56.586Z,6.67
2022-08-25T20:19:23.375Z,5.03
2022-08-25T20:21:50.253Z,6.10
2022-08-25T20:24:36.167Z,6.27
2022-08-25T20:27:04.414Z,6.10
2022-08-25T20:29:31.884Z,6.93
2022-08-25T20:31:59.022Z,5.70
2022-08-25T20:34:28.987Z,6.50
2022-08-25T20:36:56.095Z,5.90
2022-08-25T20:39:24.626Z,8.67
2022-08-25T20:41:51.907Z,4.50
2022-08-25T20:44:19.428Z,6.87
2022-08-25T20:46:51.506Z,6.53
2022-08-25T20:49:20.294Z,5.40
2022-08-25T20:51:47.229Z,4.20
2022-08-25T20:54:17.543Z,6.67
2022-08-25T20:56:44.398Z,5.20
2022-08-25T20:59:12.937Z,6.03
2022-08-25T21:01:41.381Z,6.83
2022-08-25T21:04:11.290Z,5.07
2022-08-25T21:06:41.574Z,10.43
2022-08-25T21:09:15.678Z,4.93
2022-08-25T21:11:43.592Z,6.53
2022-08-25T21:14:12.935Z,4.87
2022-08-25T21:16:41.088Z,8.27
2022-08-25T21:19:11.100Z,5.83
2022-08-25T21:21:40.066Z,6.43
2022-08-25T21:24:09.736Z,3.83
2022-08-25T21:26:48.937Z,7.03
2022-08-25T21:29:17.445Z,4.10
2022-08-25T21:31:45.724Z,6.13
2022-08-25T21:34:13.684Z,5.17
2022-08-25T21:36:42.188Z,4.57
2022-08-25T21:39:09.921Z,7.00
2022-08-25T21:41:39.480Z,8.50
2022-08-25T21:44:07.664Z,5.30
2022-08-25T21:46:36.484Z,7.80
2022-08-25T21:49:05.882Z,4.77
2022-08-25T21:51:40.674Z,6.90
2022-08-25T21:54:11.549Z,5.80
2022-08-25T21:56:49.724Z,5.90
2022-08-25T21:59:21.045Z,6.43
2022-08-25T22:01:47.815Z,6.67
2022-08-25T22:04:15.797Z,4.63
2022-08-25T22:06:42.704Z,6.00
2022-08-25T22:09:12.847Z,4.37
2022-08-25T22:11:42.703Z,8.87
2022-08-25T22:14:10.514Z,4.33
2022-08-25T22:16:38.592Z,8.70
2022-08-25T22:19:08.480Z,6.57
2022-08-25T22:21:36.420Z,5.87
2022-08-25T22:24:03.711Z,5.87
2022-08-25T22:26:32.258Z,4.63
2022-08-25T22:29:00.793Z,8.70
2022-08-25T22:31:28.529Z,4.07
2022-08-25T22:33:57.748Z,5.20
2022-08-25T22:36:34.746Z,5.57
2022-08-25T22:39:02.954Z,4.87
2022-08-25T22:41:31.596Z,3.70
2022-08-25T22:44:00.474Z,7.43
2022-08-25T22:46:32.573Z,5.20
2022-08-25T22:49:00.218Z,5.50
2022-08-25T22:51:31.627Z,5.83
2022-08-25T22:54:00.553Z,4.50
2022-08-25T22:56:34.767Z,8.00
2022-08-25T22:59:10.033Z,8.60
2022-08-25T23:01:38.342Z,4.17
2022-08-25T23:04:07.411Z,3.30
2022-08-25T23:06:36.909Z,3.27
2022-08-25T23:09:06.701Z,7.43
2022-08-25T23:11:35.788Z,4.03
2022-08-25T23:14:08.397Z,5.75
2022-08-25T23:16:35.203Z,2.13
2022-08-25T23:19:02.223Z,2.67
2022-08-25T23:21:47.951Z,4.80
2022-08-25T23:24:29.555Z,3.53
2022-08-25T23:27:02.029Z,4.20
2022-08-25T23:29:30.222Z,3.95
2022-08-25T23:31:57.774Z,5.37
2022-08-25T23:34:25.456Z,5.13
2022-08-25T23:36:52.663Z,5.70
2022-08-25T23:39:21.706Z,5.03
2022-08-25T23:41:50.252Z,2.23
2022-08-25T23:44:18.068Z,4.00
2022-08-25T23:46:47.333Z,4.43
2022-08-25T23:49:18.196Z,3.80
2022-08-25T23:51:46.977Z,1.97
2022-08-25T23:54:13.985Z,6.83
2022-08-25T23:56:44.797Z,4.80
2022-08-25T23:59:24.480Z,2.93
